createdAt,value
2023-05-05T00:00:23.066Z,99940.97
2023-05-05T00:03:10.053Z,99940.72
2023-05-05T00:05:37.537Z,99944.75
2023-05-05T00:08:04.591Z,99950.78
2023-05-05T00:10:32.555Z,99954.56
2023-05-05T00:12:59.409Z,99941.28
2023-05-05T00:15:27.587Z,99945.06
2023-05-05T00:17:54.755Z,99941.28
2023-05-05T00:20:23.024Z,99932.47
2023-05-05T00:22:50.005Z,99932.44
2023-05-05T00:25:18.190Z,99921.41
2023-05-05T00:27:45.037Z,99917.66
2023-05-05T00:30:14.568Z,99911.63
2023-05-05T00:32:41.697Z,99916.13
2023-05-05T00:35:09.063Z,99908.34
2023-05-05T00:37:36.132Z,99911.59
2023-05-05T00:40:03.684Z,99907.06
2023-05-05T00:42:38.208Z,99902.53
2023-05-05T00:45:06.061Z,99897.75
2023-05-05T00:47:32.942Z,99901.56
2023-05-05T00:50:00.262Z,99905.53
2023-05-05T00:52:27.133Z,99897.75
2023-05-05T00:54:58.085Z,99896.22
2023-05-05T00:57:25.445Z,99904.75
2023-05-05T00:59:53.080Z,99911.53
2023-05-05T01:02:20.034Z,99903.50
2023-05-05T01:04:47.321Z,99904.25
2023-05-05T01:07:24.298Z,99906.00
2023-05-05T01:10:27.259Z,99899.44
2023-05-05T01:12:55.093Z,99896.13
2023-05-05T01:15:22.306Z,99899.91
2023-05-05T01:17:55.214Z,99909.63
2023-05-05T01:20:29.576Z,99908.66
2023-05-05T01:23:01.554Z,99908.91
2023-05-05T01:25:34.834Z,99900.41
2023-05-05T01:28:02.110Z,99910.88
2023-05-05T01:30:35.292Z,99904.59
2023-05-05T01:33:06.789Z,99905.19
2023-05-05T01:35:54.676Z,99908.16
2023-05-05T01:38:23.285Z,99902.31
2023-05-05T01:41:01.920Z,99905.75
2023-05-05T01:43:30.835Z,99899.47
2023-05-05T01:45:59.107Z,99899.44
2023-05-05T01:48:26.039Z,99897.97
2023-05-05T01:50:53.368Z,99891.00
2023-05-05T01:53:24.211Z,99882.16
2023-05-05T01:55:54.635Z,99883.91
2023-05-05T01:58:22.304Z,99888.13
2023-05-05T02:00:51.006Z,99880.63
2023-05-05T02:03:18.637Z,99883.16
2023-05-05T02:05:47.725Z,99888.53
2023-05-05T02:08:15.992Z,99880.47
2023-05-05T02:10:44.325Z,99880.91
2023-05-05T02:13:13.232Z,99878.31
2023-05-05T02:15:41.808Z,99871.91
2023-05-05T02:18:10.030Z,99875.16
2023-05-05T02:20:41.140Z,99864.34
2023-05-05T02:23:08.823Z,99866.09
2023-05-05T02:25:42.067Z,99867.03
2023-05-05T02:28:38.339Z,99864.72
2023-05-05T02:31:06.584Z,99866.66
2023-05-05T02:33:34.534Z,99862.41
2023-05-05T02:36:18.251Z,99871.50
2023-05-05T02:38:55.630Z,99865.91
2023-05-05T02:41:28.425Z,99861.38
2023-05-05T02:43:57.911Z,99866.16
2023-05-05T02:46:26.837Z,99862.59
2023-05-05T02:48:53.833Z,99866.94
2023-05-05T02:51:20.897Z,99874.69
2023-05-05T02:53:52.399Z,99874.59
2023-05-05T02:56:21.074Z,99874.69
2023-05-05T02:58:54.363Z,99879.91
2023-05-05T03:01:27.137Z,99872.09
2023-05-05T03:03:55.335Z,99874.59
2023-05-05T03:06:27.336Z,99876.00
2023-05-05T03:09:00.564Z,99872.97
2023-05-05T03:11:31.917Z,99872.97
2023-05-05T03:14:10.129Z,99877.53
2023-05-05T03:16:39.576Z,99882.41
2023-05-05T03:19:08.790Z,99883.41
2023-05-05T03:21:36.384Z,99878.13
2023-05-05T03:24:16.959Z,99888.38
2023-05-05T03:26:49.865Z,99884.41
2023-05-05T03:29:20.280Z,99888.88
2023-05-05T03:31:47.653Z,99889.97
2023-05-05T03:34:17.539Z,99881.28
2023-05-05T03:36:47.733Z,99872.56
2023-05-05T03:39:18.866Z,99875.56
2023-05-05T03:41:46.836Z,99887.59
2023-05-05T03:44:14.843Z,99878.72
2023-05-05T03:46:42.018Z,99877.13
2023-05-05T03:49:14.100Z,99884.22
2023-05-05T03:51:42.878Z,99887.69
2023-05-05T03:54:09.952Z,99887.91
2023-05-05T03:56:37.449Z,99887.25
2023-05-05T03:59:04.279Z,99892.25
2023-05-05T04:01:35.352Z,99889.50
2023-05-05T04:04:02.494Z,99904.31
2023-05-05T04:06:29.821Z,99904.88
2023-05-05T04:08:56.671Z,99900.19
2023-05-05T04:11:26.296Z,99894.97
2023-05-05T04:13:57.589Z,99905.03
2023-05-05T04:16:26.578Z,99903.13
2023-05-05T04:18:53.855Z,99904.94
2023-05-05T04:21:21.106Z,99908.03
2023-05-05T04:23:48.048Z,99905.53
2023-05-05T04:26:15.202Z,99908.56
2023-05-05T04:28:42.966Z,99913.09
2023-05-05T04:31:10.735Z,99920.38
2023-05-05T04:33:41.172Z,99918.88
2023-05-05T04:36:08.928Z,99928.44
2023-05-05T04:38:36.885Z,99924.16
2023-05-05T04:41:06.425Z,99931.97
2023-05-05T04:43:34.267Z,99936.25
2023-05-05T04:46:01.819Z,99931.97
2023-05-05T04:48:31.575Z,99941.50
2023-05-05T04:50:58.710Z,99951.78
2023-05-05T04:53:25.591Z,99961.56
2023-05-05T04:55:52.706Z,99965.31
2023-05-05T04:58:19.543Z,99971.81
2023-05-05T05:00:47.046Z,99974.53
2023-05-05T05:03:13.931Z,99971.72
2023-05-05T05:05:41.430Z,99981.22
2023-05-05T05:08:08.500Z,99978.41
2023-05-05T05:10:35.838Z,99976.31
2023-05-05T05:13:02.829Z,99981.16
2023-05-05T05:15:30.265Z,99979.72
2023-05-05T05:17:57.605Z,99980.38
2023-05-05T05:20:25.301Z,99993.38
2023-05-05T05:22:52.297Z,99993.09
2023-05-05T05:25:21.781Z,100000.47
2023-05-05T05:27:58.559Z,99999.47
2023-05-05T05:30:37.122Z,100020.84
2023-05-05T05:33:06.034Z,100008.06
2023-05-05T05:35:36.920Z,100012.78
2023-05-05T05:38:06.448Z,100018.59
2023-05-05T05:40:34.449Z,100019.28
2023-05-05T05:43:02.939Z,100012.59
2023-05-05T05:45:31.221Z,100000.50
2023-05-05T05:47:58.352Z,100001.28
2023-05-05T05:50:28.571Z,99992.38
2023-05-05T05:52:56.685Z,99999.28
2023-05-05T05:55:24.420Z,99988.41
2023-05-05T05:57:52.221Z,99993.25
2023-05-05T06:00:21.260Z,100001.59
2023-05-05T06:02:55.259Z,99998.59
2023-05-05T06:05:26.312Z,99991.66
2023-05-05T06:07:54.239Z,99993.91
2023-05-05T06:10:27.836Z,100003.38
2023-05-05T06:13:01.388Z,100005.41
2023-05-05T06:15:29.838Z,100013.97
2023-05-05T06:18:00.923Z,100009.88
2023-05-05T06:20:28.223Z,100010.59
2023-05-05T06:22:57.873Z,100005.78
2023-05-05T06:25:27.329Z,100010.72
2023-05-05T06:27:54.460Z,100005.66
2023-05-05T06:30:21.853Z,100002.56
2023-05-05T06:32:48.806Z,100004.84
2023-05-05T06:35:16.038Z,100006.97
2023-05-05T06:37:44.316Z,100011.50
2023-05-05T06:40:11.967Z,100013.94
2023-05-05T06:42:41.865Z,100006.03
2023-05-05T06:45:14.861Z,100015.94
2023-05-05T06:47:46.746Z,100015.28
2023-05-05T06:50:14.000Z,100029.69
2023-05-05T06:52:41.362Z,100039.13
2023-05-05T06:55:08.818Z,100039.47
2023-05-05T06:57:35.922Z,100049.56
2023-05-05T07:02:33.781Z,100059.94
2023-05-05T07:05:03.468Z,100055.34
2023-05-05T07:07:31.754Z,100055.34
2023-05-05T07:10:01.418Z,100060.81
2023-05-05T07:12:30.533Z,100063.75
2023-05-05T07:14:57.766Z,100072.63
2023-05-05T07:17:24.728Z,100065.59
2023-05-05T07:19:55.060Z,100061.78
2023-05-05T07:22:22.009Z,100053.66
2023-05-05T07:24:49.837Z,100050.63
2023-05-05T07:27:18.048Z,100056.44
2023-05-05T07:29:45.599Z,100055.38
2023-05-05T07:32:12.608Z,100046.84
2023-05-05T07:34:40.404Z,100052.16
2023-05-05T07:37:07.549Z,100042.56
2023-05-05T07:39:37.351Z,100047.97
2023-05-05T07:42:04.262Z,100046.63
2023-05-05T07:44:31.773Z,100060.50
2023-05-05T07:46:58.775Z,100050.28
2023-05-05T07:49:26.878Z,100051.16
2023-05-05T07:51:54.485Z,100048.88
2023-05-05T07:54:22.131Z,100048.28
2023-05-05T07:56:50.157Z,100045.19
2023-05-05T07:59:17.578Z,100042.22
2023-05-05T08:01:44.518Z,100046.00
2023-05-05T08:04:12.395Z,100048.31
2023-05-05T08:06:39.547Z,100048.44
2023-05-05T08:09:06.952Z,100035.19
2023-05-05T08:11:33.902Z,100046.13
2023-05-05T08:14:01.237Z,100039.81
2023-05-05T08:16:30.784Z,100043.63
2023-05-05T08:18:58.013Z,100036.94
2023-05-05T08:21:24.856Z,100036.75
2023-05-05T08:23:52.126Z,100037.63
2023-05-05T08:26:22.914Z,100029.66
2023-05-05T08:28:50.214Z,100026.72
2023-05-05T08:31:17.194Z,100029.75
2023-05-05T08:33:44.470Z,100028.84
2023-05-05T08:36:11.668Z,100031.22
2023-05-05T08:38:39.102Z,100028.13
2023-05-05T08:41:09.945Z,100029.59
2023-05-05T08:43:37.134Z,100023.47
2023-05-05T08:46:04.546Z,100030.19
2023-05-05T08:48:33.594Z,100028.34
2023-05-05T08:51:05.377Z,100035.69
2023-05-05T08:53:46.825Z,100021.59
2023-05-05T08:56:16.977Z,100029.66
2023-05-05T08:58:44.822Z,100028.13
2023-05-05T09:01:13.162Z,100040.44
2023-05-05T09:03:43.677Z,100035.41
2023-05-05T09:06:11.098Z,100023.22
2023-05-05T09:08:38.773Z,100028.38
2023-05-05T09:11:06.339Z,100015.91
2023-05-05T09:13:33.604Z,100018.50
2023-05-05T09:16:00.831Z,100011.66
2023-05-05T09:18:28.715Z,100010.59
2023-05-05T09:20:57.526Z,100006.66
2023-05-05T09:23:26.487Z,100016.31
2023-05-05T09:26:04.476Z,100003.44
2023-05-05T09:28:32.192Z,100006.84
2023-05-05T09:31:12.300Z,100004.75
2023-05-05T09:33:39.606Z,100007.88
2023-05-05T09:36:08.846Z,100006.66
2023-05-05T09:38:36.890Z,100012.00
2023-05-05T09:41:05.446Z,100001.25
2023-05-05T09:43:49.519Z,100004.50
2023-05-05T09:46:16.713Z,100005.75
2023-05-05T09:48:43.968Z,100004.50
2023-05-05T09:51:10.920Z,100005.44
2023-05-05T09:53:39.285Z,100006.97
2023-05-05T09:56:07.009Z,100004.63
2023-05-05T09:58:34.332Z,100005.44
2023-05-05T10:01:01.489Z,100002.94
2023-05-05T10:03:31.171Z,100000.03
2023-05-05T10:05:59.122Z,100005.28
2023-05-05T10:08:28.053Z,99998.09
2023-05-05T10:11:00.578Z,99994.16
2023-05-05T10:13:27.966Z,100000.34
2023-05-05T10:15:57.427Z,99999.34
2023-05-05T10:18:25.829Z,99986.16
2023-05-05T10:21:02.113Z,99993.31
2023-05-05T10:23:39.593Z,99988.59
2023-05-05T10:26:11.782Z,99985.84
2023-05-05T10:28:48.400Z,99992.91
2023-05-05T10:31:26.521Z,99993.97
2023-05-05T10:33:58.205Z,99990.91
2023-05-05T10:36:25.506Z,99983.31
2023-05-05T10:38:55.744Z,99972.56
2023-05-05T10:41:22.699Z,99963.59
2023-05-05T10:43:50.294Z,99959.28
2023-05-05T10:46:17.485Z,99957.84
2023-05-05T10:48:56.732Z,99958.78
2023-05-05T10:51:41.163Z,99950.09
2023-05-05T10:54:27.929Z,99949.41
2023-05-05T10:56:55.010Z,99946.69
2023-05-05T10:59:37.950Z,99951.53
2023-05-05T11:02:23.917Z,99943.13
2023-05-05T11:05:03.578Z,99947.75
2023-05-05T11:07:30.756Z,99932.81
2023-05-05T11:09:59.288Z,99933.91
2023-05-05T11:12:26.391Z,99930.38
2023-05-05T11:15:12.572Z,99933.84
2023-05-05T11:17:48.822Z,99928.81
2023-05-05T11:20:16.047Z,99916.97
2023-05-05T11:23:01.909Z,99913.56
2023-05-05T11:25:34.518Z,99914.28
2023-05-05T11:28:14.511Z,99903.88
2023-05-05T11:30:58.155Z,99899.56
2023-05-05T11:33:29.588Z,99895.13
2023-05-05T11:36:08.970Z,99899.81
2023-05-05T11:38:39.074Z,99890.69
2023-05-05T11:41:22.425Z,99901.19
2023-05-05T11:43:49.304Z,99887.38
2023-05-05T11:46:17.162Z,99887.25
2023-05-05T11:48:45.701Z,99890.47
2023-05-05T11:51:13.831Z,99879.25
2023-05-05T11:53:42.853Z,99879.25
2023-05-05T11:56:10.828Z,99875.00
2023-05-05T11:58:38.037Z,99883.25
2023-05-05T12:01:06.743Z,99886.06
2023-05-05T12:03:37.869Z,99885.56
2023-05-05T12:06:05.952Z,99876.47
2023-05-05T12:08:39.787Z,99880.94
2023-05-05T12:11:08.489Z,99876.00
2023-05-05T12:13:38.078Z,99870.97
2023-05-05T12:16:12.942Z,99872.31
2023-05-05T12:18:40.249Z,99871.72
2023-05-05T12:21:17.629Z,99859.84
2023-05-05T12:23:44.816Z,99862.63
2023-05-05T12:26:29.117Z,99859.88
2023-05-05T12:28:56.828Z,99860.19
2023-05-05T12:31:33.655Z,99858.25
2023-05-05T12:34:00.875Z,99851.66
2023-05-05T12:36:30.663Z,99845.84
2023-05-05T12:38:58.173Z,99845.03
2023-05-05T12:41:25.511Z,99846.94
2023-05-05T12:43:56.640Z,99844.97
2023-05-05T12:46:24.343Z,99835.97
2023-05-05T12:49:07.014Z,99837.75
2023-05-05T12:51:35.148Z,99838.03
2023-05-05T12:54:06.507Z,99833.28
2023-05-05T12:56:37.901Z,99830.44
2023-05-05T12:59:06.129Z,99834.03
2023-05-05T13:01:36.553Z,99821.41
2023-05-05T13:04:11.285Z,99821.78
2023-05-05T13:06:39.328Z,99818.41
2023-05-05T13:09:10.314Z,99823.31
2023-05-05T13:11:38.077Z,99808.13
2023-05-05T13:14:06.577Z,99801.53
2023-05-05T13:16:34.154Z,99803.22
2023-05-05T13:19:01.001Z,99792.28
2023-05-05T13:21:28.298Z,99783.22
2023-05-05T13:24:05.056Z,99785.44
2023-05-05T13:26:35.811Z,99773.66
2023-05-05T13:29:02.652Z,99773.94
2023-05-05T13:31:30.001Z,99776.72
2023-05-05T13:33:59.629Z,99765.06
2023-05-05T13:36:27.198Z,99771.22
2023-05-05T13:38:54.138Z,99768.78
2023-05-05T13:41:21.360Z,99764.50
2023-05-05T13:43:48.891Z,99760.31
2023-05-05T13:46:20.144Z,99748.53
2023-05-05T13:48:47.373Z,99751.53
2023-05-05T13:51:15.907Z,99749.84
2023-05-05T13:53:44.147Z,99738.19
2023-05-05T13:56:11.425Z,99730.19
2023-05-05T13:58:40.700Z,99730.19
2023-05-05T14:01:10.219Z,99739.09
2023-05-05T14:03:39.621Z,99733.53
2023-05-05T14:06:07.594Z,99728.94
2023-05-05T14:08:34.745Z,99730.50
2023-05-05T14:11:03.238Z,99721.81
2023-05-05T14:13:30.307Z,99720.75
2023-05-05T14:15:58.483Z,99722.91
2023-05-05T14:18:25.721Z,99721.22
2023-05-05T14:20:52.938Z,99725.97
2023-05-05T14:23:19.936Z,99719.38
2023-05-05T14:25:47.754Z,99719.53
2023-05-05T14:28:14.808Z,99714.41
2023-05-05T14:30:42.086Z,99714.91
2023-05-05T14:33:09.069Z,99705.25
2023-05-05T14:35:36.286Z,99699.75
2023-05-05T14:38:03.194Z,99698.09
2023-05-05T14:40:31.346Z,99697.34
2023-05-05T14:42:58.325Z,99694.78
2023-05-05T14:45:27.417Z,99700.16
2023-05-05T14:47:54.513Z,99703.53
2023-05-05T14:50:24.179Z,99689.69
2023-05-05T14:52:51.324Z,99697.72
2023-05-05T14:55:18.573Z,99690.72
2023-05-05T14:57:45.961Z,99694.03
2023-05-05T15:00:13.393Z,99692.50
2023-05-05T15:02:40.505Z,99688.94
2023-05-05T15:05:10.683Z,99688.06
2023-05-05T15:07:37.850Z,99687.84
2023-05-05T15:10:05.423Z,99684.03
2023-05-05T15:12:34.766Z,99687.97
2023-05-05T15:15:02.227Z,99691.16
2023-05-05T15:17:30.873Z,99681.34
2023-05-05T15:20:00.705Z,99686.03
2023-05-05T15:22:27.871Z,99683.34
2023-05-05T15:24:55.020Z,99691.69
2023-05-05T15:27:21.944Z,99693.25
2023-05-05T15:29:49.206Z,99692.69
2023-05-05T15:32:16.051Z,99686.19
2023-05-05T15:34:44.889Z,99691.22
2023-05-05T15:37:11.970Z,99691.97
2023-05-05T15:39:39.361Z,99685.91
2023-05-05T15:42:06.273Z,99681.88
2023-05-05T15:44:33.440Z,99683.97
2023-05-05T15:47:00.311Z,99676.44
2023-05-05T15:49:27.476Z,99678.09
2023-05-05T15:51:54.426Z,99679.47
2023-05-05T15:54:21.741Z,99678.00
2023-05-05T15:56:48.738Z,99679.94
2023-05-05T15:59:15.954Z,99679.94
2023-05-05T16:01:42.879Z,99677.31
2023-05-05T16:04:10.132Z,99673.00
2023-05-05T16:06:37.019Z,99671.00
2023-05-05T16:09:04.163Z,99676.63
2023-05-05T16:11:31.452Z,99662.25
2023-05-05T16:13:58.624Z,99663.47
2023-05-05T16:16:25.454Z,99661.38
2023-05-05T16:18:55.217Z,99660.50
2023-05-05T16:21:24.517Z,99663.63
2023-05-05T16:23:51.882Z,99656.56
2023-05-05T16:26:19.123Z,99650.97
2023-05-05T16:28:46.393Z,99647.00
2023-05-05T16:31:15.586Z,99654.56
2023-05-05T16:33:44.174Z,99655.63
2023-05-05T16:36:12.647Z,99641.44
2023-05-05T16:38:40.335Z,99638.19
2023-05-05T16:41:07.728Z,99644.16
2023-05-05T16:43:37.217Z,99644.59
2023-05-05T16:46:04.682Z,99638.06
2023-05-05T16:48:31.871Z,99642.22
2023-05-05T16:51:01.752Z,99636.03
2023-05-05T16:53:31.581Z,99640.03
2023-05-05T16:55:58.517Z,99628.19
2023-05-05T16:58:25.847Z,99632.66
2023-05-05T17:00:55.053Z,99640.22
2023-05-05T17:03:22.797Z,99628.03
2023-05-05T17:05:50.525Z,99640.06
2023-05-05T17:08:17.730Z,99635.19
2023-05-05T17:10:45.617Z,99628.53
2023-05-05T17:13:13.466Z,99630.34
2023-05-05T17:15:40.565Z,99629.31
2023-05-05T17:18:10.735Z,99627.09
2023-05-05T17:20:37.632Z,99621.19
2023-05-05T17:23:05.197Z,99626.81
2023-05-05T17:25:35.803Z,99622.19
2023-05-05T17:28:03.005Z,99619.53
2023-05-05T17:30:29.851Z,99613.44
2023-05-05T17:32:57.045Z,99615.94
2023-05-05T17:35:26.825Z,99614.25
2023-05-05T17:37:54.221Z,99622.69
2023-05-05T17:40:24.149Z,99621.19
2023-05-05T17:42:53.617Z,99618.13
2023-05-05T17:45:20.863Z,99619.41
2023-05-05T17:47:48.098Z,99619.66
2023-05-05T17:50:15.001Z,99614.97
2023-05-05T17:52:43.901Z,99621.31
2023-05-05T17:55:11.168Z,99618.09
2023-05-05T17:57:41.078Z,99621.63
2023-05-05T18:00:10.863Z,99619.81
2023-05-05T18:02:43.208Z,99626.94
2023-05-05T18:05:13.353Z,99623.25
2023-05-05T18:07:40.720Z,99625.22
2023-05-05T18:10:08.307Z,99614.41
2023-05-05T18:12:35.759Z,99618.63
2023-05-05T18:15:03.808Z,99628.44
2023-05-05T18:17:30.992Z,99627.78
2023-05-05T18:20:00.225Z,99627.22
2023-05-05T18:22:27.368Z,99629.59
2023-05-05T18:24:59.105Z,99629.50
2023-05-05T18:27:27.007Z,99635.50
2023-05-05T18:29:54.148Z,99638.22
2023-05-05T18:32:21.869Z,99635.47
2023-05-05T18:34:49.044Z,99639.94
2023-05-05T18:37:16.211Z,99648.59
2023-05-05T18:39:44.137Z,99650.50
2023-05-05T18:42:12.970Z,99655.59
2023-05-05T18:44:42.583Z,99649.81
2023-05-05T18:47:09.928Z,99645.19
2023-05-05T18:49:36.868Z,99649.28
2023-05-05T18:52:04.278Z,99656.06
2023-05-05T18:54:31.320Z,99646.78
2023-05-05T18:56:59.417Z,99646.47
2023-05-05T18:59:26.388Z,99656.78
2023-05-05T19:01:53.778Z,99649.13
2023-05-05T19:07:14.496Z,99644.34
2023-05-05T19:09:48.097Z,99649.25
2023-05-05T19:12:15.371Z,99645.72
2023-05-05T19:14:42.325Z,99649.28
2023-05-05T19:17:09.478Z,99644.28
2023-05-05T19:19:36.400Z,99638.72
2023-05-05T19:22:04.115Z,99649.94
2023-05-05T19:24:35.523Z,99647.53
2023-05-05T19:27:03.015Z,99644.94
2023-05-05T19:29:32.158Z,99643.88
2023-05-05T19:31:59.374Z,99645.00
2023-05-05T19:34:27.032Z,99645.41
2023-05-05T19:36:54.409Z,99641.31
2023-05-05T19:39:21.266Z,99639.09
2023-05-05T19:41:48.818Z,99641.16
2023-05-05T19:44:16.614Z,99636.53
2023-05-05T19:46:46.220Z,99635.22
2023-05-05T19:49:13.066Z,99627.94
2023-05-05T19:51:41.969Z,99634.88
2023-05-05T19:54:09.096Z,99631.31
2023-05-05T19:56:36.641Z,99628.88
2023-05-05T19:59:05.361Z,99629.25
2023-05-05T20:01:38.393Z,99626.06
2023-05-05T20:04:05.443Z,99623.81
2023-05-05T20:06:37.449Z,99620.50
2023-05-05T20:09:04.669Z,99614.16
2023-05-05T20:11:32.078Z,99609.13
2023-05-05T20:13:59.186Z,99610.06
2023-05-05T20:16:26.877Z,99614.69
2023-05-05T20:18:56.137Z,99611.34
2023-05-05T20:21:23.376Z,99610.03
2023-05-05T20:23:50.414Z,99610.72
2023-05-05T20:26:17.904Z,99598.44
2023-05-05T20:28:46.032Z,99596.94
2023-05-05T20:31:14.251Z,99587.59
2023-05-05T20:33:41.213Z,99591.66
2023-05-05T20:36:11.410Z,99585.28
2023-05-05T20:38:38.287Z,99586.78
2023-05-05T20:41:08.012Z,99587.88
2023-05-05T20:43:37.460Z,99591.75
2023-05-05T20:46:04.897Z,99590.44
2023-05-05T20:48:33.885Z,99590.03
2023-05-05T20:51:04.634Z,99591.09
2023-05-05T20:53:31.956Z,99576.59
2023-05-05T20:55:59.162Z,99594.00
2023-05-05T20:58:26.060Z,99583.63
2023-05-05T21:00:53.292Z,99583.22
2023-05-05T21:03:20.405Z,99589.28
2023-05-05T21:05:47.664Z,99588.50
2023-05-05T21:08:16.953Z,99584.38
2023-05-05T21:10:44.048Z,99590.63
2023-05-05T21:13:11.023Z,99581.69
2023-05-05T21:15:38.306Z,99582.78
2023-05-05T21:18:05.533Z,99582.59
2023-05-05T21:20:33.252Z,99583.47
2023-05-05T21:23:01.182Z,99574.72
2023-05-05T21:25:28.505Z,99583.97
2023-05-05T21:27:55.316Z,99588.91
2023-05-05T21:30:23.583Z,99583.31
2023-05-05T21:32:53.004Z,99576.78
2023-05-05T21:35:20.554Z,99570.94
2023-05-05T21:37:49.971Z,99573.16
2023-05-05T21:40:17.557Z,99570.59
2023-05-05T21:42:44.386Z,99562.59
2023-05-05T21:45:12.020Z,99566.66
2023-05-05T21:47:41.504Z,99567.72
2023-05-05T21:50:12.180Z,99559.09
2023-05-05T21:52:39.249Z,99570.19
2023-05-05T21:55:06.933Z,99567.88
2023-05-05T21:57:33.758Z,99571.19
2023-05-05T22:00:05.724Z,99572.78
2023-05-05T22:02:39.313Z,99566.31
2023-05-05T22:05:06.928Z,99569.06
2023-05-05T22:07:33.777Z,99567.31
2023-05-05T22:10:03.487Z,99569.22
2023-05-05T22:12:30.350Z,99570.50
2023-05-05T22:14:57.567Z,99576.41
2023-05-05T22:17:24.585Z,99576.53
2023-05-05T22:19:51.873Z,99571.84
2023-05-05T22:22:18.822Z,99571.97
2023-05-05T22:24:45.977Z,99564.41
2023-05-05T22:27:12.847Z,99565.66
2023-05-05T22:29:40.414Z,99548.31
2023-05-05T22:32:07.572Z,99558.44
2023-05-05T22:34:35.708Z,99549.06
2023-05-05T22:37:02.640Z,99548.19
2023-05-05T22:39:30.590Z,99544.13
2023-05-05T22:41:57.610Z,99544.28
2023-05-05T22:44:24.790Z,99541.41
2023-05-05T22:46:51.785Z,99535.25
2023-05-05T22:49:19.147Z,99535.59
2023-05-05T22:51:47.055Z,99534.63
2023-05-05T22:54:17.307Z,99537.75
2023-05-05T22:56:44.737Z,99535.72
2023-05-05T22:59:12.051Z,99537.94
2023-05-05T23:01:39.545Z,99539.31
2023-05-05T23:04:07.515Z,99536.41
2023-05-05T23:06:34.865Z,99541.47
2023-05-05T23:09:01.955Z,99536.59
2023-05-05T23:11:28.842Z,99537.00
2023-05-05T23:13:55.995Z,99531.03
2023-05-05T23:16:27.547Z,99529.41
2023-05-05T23:18:54.804Z,99536.59
2023-05-05T23:21:24.006Z,99529.19
2023-05-05T23:23:51.272Z,99521.53
2023-05-05T23:26:21.366Z,99528.50
2023-05-05T23:28:48.628Z,99519.47
2023-05-05T23:31:15.640Z,99519.00
2023-05-05T23:33:42.863Z,99512.38
2023-05-05T23:36:09.715Z,99510.25
2023-05-05T23:38:36.857Z,99509.47
2023-05-05T23:41:03.969Z,99515.97
2023-05-05T23:43:31.977Z,99508.16
2023-05-05T23:45:58.846Z,99502.75
2023-05-05T23:48:26.330Z,99499.22
2023-05-05T23:50:53.436Z,99490.81
2023-05-05T23:53:20.694Z,99487.28
2023-05-05T23:55:47.745Z,99490.81
2023-05-05T23:58:14.999Z,99489.31
